Terminal Aerodrome Forecast
Issued by NWS

Home | Current Version | Previous Version | Text Only | Print | Product List | Glossary On
Versions: 1 2 3 4 5 6 7 8 9 10 11 12 13 14 15 16 17 18 19 20 21 22 23 24 25 26 27 28 29 30 31 32
000
FTUS44 KLIX 012300
TAFHUM
TAF
KHUM 012322Z 0200/0224 23010KT P6SM BKN030
      TEMPO 0201/0205 5SM -SHRA
     FM020500 28011KT P6SM OVC020
      TEMPO 0205/0207 5SM -SHRA
     FM020700 32014KT P6SM OVC015
     FM020900 33017KT P6SM BKN030
     FM021300 34016KT P6SM SCT140
     FM022200 35009KT P6SM FEW250
      AMD NOT SKED=

USA.gov is the U.S. government's official web portal to all federal, state and local government web resources and services.